LIEE/CAG METAR and TAF weather

Enter ICAO airport designator
Station Type Date Time Source
LIEE METAR 2020/09/22 07:50 UTC NOAA

LIEE 220750Z 02003KT 340V090 CAVOK 23/19 Q1015


Station Type Date Time Source
LIEE Decoded METAR 2020/09/22 07:50 UTC NOAA

Cagliari / Elmas, Italy (LIEE) 39-15N 009-04E 5M
Sep 22, 2020 - 03:50 AM EDT / 2020.09.22 0750 UTC
Wind: from the NNE (020 degrees) at 3 MPH (3 KT) (direction variable):0
Visibility: greater than 7 mile(s):0
Temperature: 73 F (23 C)
Dew Point: 66 F (19 C)
Relative Humidity: 78%
Pressure (altimeter): 29.97 in. Hg (1015 hPa)
ob: LIEE 220750Z 02003KT 340V090 CAVOK 23/19 Q1015
cycle: 8

Station Type Date Time Source
LIEE TAF 2020/09/22 06:21 UTC NOAA

TAF LIEE 220500Z 2206/2306 30008KT 9999 SCT025

Example: see airport list